Lindseyville, Kentucky
Current Conditions -  °F | °C
As of 11:53 AM on Sunday 25 Jan 2015 (Local Time) from KBWG Reporting Station
Overcast Overcast  
Wind Chill: 44°   Ceiling: 10000
Heat Index: 49°   Visibility: 10mi
Dew Point: 34°   Wind: 12mph
Humidity: 56%   Direction: 180°S
Pressure: 29.67"   Gusts: NA
Location:  37.24°N, 86.29°W
Report Text: KBWG 251753Z AUTO 18010KT 10SM FEW080 OVC100 09/01 A2967 RMK AO2 SLP047 T00940011 10094 20022 58023
Loading
Personal Weather Stations






























Interactive Weather Map New forecast layout! Learn more

10-Day Weather Forecast

Advertisements
Track Severe Weather on mobile